createdAt,value
2023-01-10T00:01:42.455Z,97997.75
2023-01-10T00:04:10.339Z,98006.38
2023-01-10T00:06:38.200Z,97997.44
2023-01-10T00:09:06.780Z,98019.38
2023-01-10T00:11:53.244Z,98012.31
2023-01-10T00:14:22.015Z,98007.03
2023-01-10T00:16:50.038Z,98009.44
2023-01-10T00:19:17.873Z,98011.22
2023-01-10T00:21:45.696Z,98014.09
2023-01-10T00:24:19.382Z,98033.16
2023-01-10T00:26:51.120Z,98039.88
2023-01-10T00:29:20.839Z,98030.28
2023-01-10T00:31:48.715Z,98038.13
2023-01-10T00:34:16.581Z,98018.09
2023-01-10T00:36:45.684Z,98026.88
2023-01-10T00:39:14.525Z,98040.16
2023-01-10T00:42:01.113Z,98040.97
2023-01-10T00:44:28.954Z,98055.91
2023-01-10T00:46:57.078Z,98058.47
2023-01-10T00:49:24.959Z,98068.88
2023-01-10T00:51:53.143Z,98066.63
2023-01-10T00:54:21.173Z,98069.97
2023-01-10T00:56:49.010Z,98065.31
2023-01-10T00:59:16.881Z,98080.53
2023-01-10T01:01:44.969Z,98086.44
2023-01-10T01:04:12.919Z,98089.00
2023-01-10T01:06:41.016Z,98090.31
2023-01-10T01:09:09.208Z,98099.31
2023-01-10T01:11:37.031Z,98103.91
2023-01-10T01:14:05.015Z,98114.63
2023-01-10T01:16:32.837Z,98105.00
2023-01-10T01:19:01.057Z,98121.81
2023-01-10T01:21:28.866Z,98128.91
2023-01-10T01:23:57.040Z,98126.91
2023-01-10T01:26:25.467Z,98130.31
2023-01-10T01:28:53.290Z,98147.63
2023-01-10T01:31:21.269Z,98147.16
2023-01-10T01:33:49.333Z,98143.44
2023-01-10T01:36:17.420Z,98135.81
2023-01-10T01:38:45.249Z,98144.94
2023-01-10T01:41:31.736Z,98147.28
2023-01-10T01:44:05.719Z,98145.88
2023-01-10T01:46:38.296Z,98158.06
2023-01-10T01:49:14.568Z,98147.50
2023-01-10T01:51:46.053Z,98156.81
2023-01-10T01:54:15.153Z,98158.03
2023-01-10T01:56:55.042Z,98174.56
2023-01-10T01:59:33.193Z,98172.50
2023-01-10T02:02:07.900Z,98186.19
2023-01-10T02:05:05.634Z,98184.78
2023-01-10T02:07:41.042Z,98183.16
2023-01-10T02:10:30.740Z,98190.97
2023-01-10T02:13:04.021Z,98195.28
2023-01-10T02:15:31.914Z,98209.94
2023-01-10T02:18:03.082Z,98190.22
2023-01-10T02:20:47.112Z,98209.41
2023-01-10T02:23:52.720Z,98203.59
2023-01-10T02:26:46.317Z,98207.00
2023-01-10T02:29:26.723Z,98211.19
2023-01-10T02:32:23.502Z,98207.59
2023-01-10T02:35:20.068Z,98215.53
2023-01-10T02:38:05.851Z,98206.81
2023-01-10T02:40:45.931Z,98198.59
2023-01-10T02:43:26.790Z,98209.97
2023-01-10T02:46:05.080Z,98216.59
2023-01-10T02:48:34.799Z,98213.22
2023-01-10T02:51:14.897Z,98218.59
2023-01-10T02:53:53.153Z,98226.47
2023-01-10T02:56:29.970Z,98225.72
2023-01-10T02:59:17.261Z,98240.03
2023-01-10T03:02:21.967Z,98223.28
2023-01-10T03:05:09.575Z,98231.66
2023-01-10T03:07:46.477Z,98231.06
2023-01-10T03:10:21.151Z,98225.66
2023-01-10T03:12:57.020Z,98234.84
2023-01-10T03:15:30.070Z,98234.66
2023-01-10T03:18:03.211Z,98237.66
2023-01-10T03:20:35.826Z,98243.78
2023-01-10T03:23:06.608Z,98237.19
2023-01-10T03:25:39.223Z,98248.63
2023-01-10T03:28:42.380Z,98232.94
2023-01-10T03:31:29.077Z,98256.22
2023-01-10T03:33:57.069Z,98255.47
2023-01-10T03:36:31.461Z,98265.47
2023-01-10T03:39:40.784Z,98263.50
2023-01-10T03:43:07.088Z,98286.78
2023-01-10T03:45:49.532Z,98285.38
2023-01-10T03:48:21.134Z,98296.81
2023-01-10T03:50:54.039Z,98311.88
2023-01-10T03:53:24.346Z,98310.94
2023-01-10T03:55:52.175Z,98315.13
2023-01-10T03:58:21.917Z,98302.44
2023-01-10T04:00:50.340Z,98315.84
2023-01-10T04:03:18.814Z,98322.63
2023-01-10T04:05:50.823Z,98321.25
2023-01-10T04:08:18.658Z,98324.66
2023-01-10T04:10:50.081Z,98342.19
2023-01-10T04:13:19.113Z,98345.59
2023-01-10T04:15:46.923Z,98361.19
2023-01-10T04:18:15.885Z,98354.75
2023-01-10T04:20:44.125Z,98361.13
2023-01-10T04:23:11.964Z,98362.06
2023-01-10T04:25:39.764Z,98355.06
2023-01-10T04:28:07.866Z,98362.47
2023-01-10T04:30:39.734Z,98368.25
2023-01-10T04:33:07.833Z,98362.56
2023-01-10T04:35:35.908Z,98385.00
2023-01-10T04:38:03.877Z,98370.78
2023-01-10T04:40:31.802Z,98379.88
2023-01-10T04:42:59.775Z,98393.84
2023-01-10T04:45:27.611Z,98381.53
2023-01-10T04:47:57.124Z,98394.50
2023-01-10T04:50:25.049Z,98400.88
2023-01-10T04:52:57.139Z,98401.63
2023-01-10T04:55:25.086Z,98413.06
2023-01-10T04:57:54.935Z,98424.44
2023-01-10T05:00:22.901Z,98419.00
2023-01-10T05:02:58.942Z,98421.53
2023-01-10T05:05:32.214Z,98430.38
2023-01-10T05:08:00.084Z,98432.50
2023-01-10T05:10:28.105Z,98429.16
2023-01-10T05:13:01.222Z,98448.81
2023-01-10T05:15:29.050Z,98463.41
2023-01-10T05:18:01.067Z,98456.59
2023-01-10T05:20:28.955Z,98457.75
2023-01-10T05:22:56.792Z,98470.00
2023-01-10T05:25:28.068Z,98472.44
2023-01-10T05:27:55.944Z,98479.59
2023-01-10T05:30:27.084Z,98487.38
2023-01-10T05:32:54.912Z,98480.13
2023-01-10T05:35:26.836Z,98488.28
2023-01-10T05:37:55.004Z,98486.09
2023-01-10T05:40:23.015Z,98489.81
2023-01-10T05:42:54.096Z,98505.22
2023-01-10T05:45:23.784Z,98496.31
2023-01-10T05:47:52.169Z,98504.72
2023-01-10T05:50:20.092Z,98517.94
2023-01-10T05:52:48.132Z,98509.66
2023-01-10T05:55:16.821Z,98523.13
2023-01-10T05:57:44.654Z,98521.75
2023-01-10T06:00:14.068Z,98526.00
2023-01-10T06:02:42.147Z,98540.50
2023-01-10T06:05:10.058Z,98545.84
2023-01-10T06:07:40.074Z,98554.22
2023-01-10T06:10:08.260Z,98558.38
2023-01-10T06:12:36.080Z,98562.09
2023-01-10T06:15:05.127Z,98562.09
2023-01-10T06:17:34.840Z,98573.41
2023-01-10T06:20:02.666Z,98580.75
2023-01-10T06:22:32.077Z,98580.25
2023-01-10T06:25:02.479Z,98585.09
2023-01-10T06:30:22.727Z,98595.19
2023-01-10T06:32:50.805Z,98595.78
2023-01-10T06:35:18.652Z,98607.91
2023-01-10T06:37:47.247Z,98607.50
2023-01-10T06:40:15.421Z,98611.44
2023-01-10T06:42:43.255Z,98624.34
2023-01-10T06:45:13.256Z,98620.03
2023-01-10T06:47:41.196Z,98626.88
2023-01-10T06:50:10.607Z,98636.38
2023-01-10T06:52:39.148Z,98634.97
2023-01-10T06:55:07.498Z,98650.66
2023-01-10T06:57:38.595Z,98655.03
2023-01-10T07:00:09.818Z,98659.47
2023-01-10T07:02:41.113Z,98658.75
2023-01-10T07:05:11.404Z,98671.78
2023-01-10T07:07:40.250Z,98666.91
2023-01-10T07:10:09.500Z,98682.97
2023-01-10T07:12:38.133Z,98690.03
2023-01-10T07:15:07.457Z,98704.16
2023-01-10T07:17:35.285Z,98701.75
2023-01-10T07:20:04.087Z,98692.25
2023-01-10T07:22:32.876Z,98705.56
2023-01-10T07:25:04.292Z,98703.47
2023-01-10T07:27:32.422Z,98704.16
2023-01-10T07:30:00.326Z,98723.53
2023-01-10T07:35:21.127Z,98722.53
2023-01-10T07:37:49.200Z,98738.47
2023-01-10T07:40:17.406Z,98737.66
2023-01-10T07:42:47.103Z,98743.41
2023-01-10T07:45:14.913Z,98752.63
2023-01-10T07:47:42.753Z,98756.84
2023-01-10T07:50:10.943Z,98764.13
2023-01-10T07:52:42.785Z,98762.31
2023-01-10T07:55:10.834Z,98759.69
2023-01-10T07:57:38.803Z,98770.38
2023-01-10T08:00:07.321Z,98785.72
2023-01-10T08:02:37.228Z,98777.25
2023-01-10T08:05:05.454Z,98782.47
2023-01-10T08:07:36.878Z,98790.66
2023-01-10T08:10:07.219Z,98790.06
2023-01-10T08:12:35.394Z,98795.44
2023-01-10T08:15:05.092Z,98806.72
2023-01-10T08:17:38.791Z,98813.09
2023-01-10T08:20:11.108Z,98804.50
2023-01-10T08:22:39.018Z,98808.72
2023-01-10T08:25:07.037Z,98814.94
2023-01-10T08:27:36.119Z,98816.88
2023-01-10T08:30:05.830Z,98830.00
2023-01-10T08:32:34.159Z,98835.31
2023-01-10T08:35:01.963Z,98845.81
2023-01-10T08:37:31.935Z,98846.41
2023-01-10T08:39:59.748Z,98855.38
2023-01-10T08:42:27.572Z,98860.34
2023-01-10T08:44:59.683Z,98866.06
2023-01-10T08:47:28.901Z,98870.47
2023-01-10T08:49:56.801Z,98877.38
2023-01-10T08:52:26.157Z,98868.31
2023-01-10T08:54:54.281Z,98879.88
2023-01-10T08:57:22.162Z,98882.59
2023-01-10T08:59:51.000Z,98887.69
2023-01-10T09:02:19.008Z,98886.66
2023-01-10T09:04:46.919Z,98889.78
2023-01-10T09:07:15.865Z,98895.47
2023-01-10T09:09:44.420Z,98897.50
2023-01-10T09:12:32.001Z,98898.41
2023-01-10T09:14:59.943Z,98896.19
2023-01-10T09:17:27.732Z,98886.59
2023-01-10T09:19:57.166Z,98899.22
2023-01-10T09:22:25.043Z,98907.19
2023-01-10T09:24:56.152Z,98905.34
2023-01-10T09:27:24.848Z,98920.34
2023-01-10T09:29:53.169Z,98917.69
2023-01-10T09:32:21.039Z,98925.38
2023-01-10T09:34:50.088Z,98926.19
2023-01-10T09:37:18.768Z,98928.75
2023-01-10T09:39:47.273Z,98930.56
2023-01-10T09:42:33.795Z,98935.31
2023-01-10T09:45:14.132Z,98935.59
2023-01-10T09:47:45.518Z,98934.88
2023-01-10T09:50:41.182Z,98930.84
2023-01-10T09:53:16.917Z,98927.84
2023-01-10T09:56:14.166Z,98938.34
2023-01-10T09:58:44.252Z,98929.66
2023-01-10T10:01:21.164Z,98945.63
2023-01-10T10:04:30.996Z,98939.50
2023-01-10T10:06:59.048Z,98947.94
2023-01-10T10:09:30.558Z,98936.50
2023-01-10T10:12:18.257Z,98952.78
2023-01-10T10:15:07.723Z,98960.66
2023-01-10T10:17:42.160Z,98952.09
2023-01-10T10:20:43.434Z,98958.53
2023-01-10T10:23:34.541Z,98973.69
2023-01-10T10:26:14.633Z,98974.31
2023-01-10T10:28:54.679Z,98975.69
2023-01-10T10:31:35.240Z,98985.34
2023-01-10T10:37:33.979Z,98984.19
2023-01-10T10:40:06.191Z,98985.16
2023-01-10T10:46:23.136Z,98976.19
2023-01-10T10:48:58.569Z,98977.06
2023-01-10T10:54:52.131Z,98977.56
2023-01-10T10:57:25.552Z,98983.94
2023-01-10T11:00:19.275Z,98990.03
2023-01-10T11:02:53.344Z,98978.31
2023-01-10T11:05:32.153Z,98981.56
2023-01-10T11:08:13.393Z,98988.25
2023-01-10T11:11:04.264Z,98985.22
2023-01-10T11:13:35.213Z,98995.53
2023-01-10T11:16:06.106Z,99005.53
2023-01-10T11:18:34.548Z,98989.94
2023-01-10T11:21:14.167Z,98997.09
2023-01-10T11:23:53.675Z,98984.97
2023-01-10T11:26:25.128Z,98999.03
2023-01-10T11:29:14.133Z,98998.88
2023-01-10T11:31:46.886Z,99005.41
2023-01-10T11:34:23.288Z,99002.28
2023-01-10T11:36:58.120Z,98978.75
2023-01-10T11:39:27.864Z,98994.34
2023-01-10T11:41:59.157Z,98994.81
2023-01-10T11:44:29.236Z,98998.66
2023-01-10T11:47:08.164Z,98996.72
2023-01-10T11:49:41.401Z,99006.75
2023-01-10T11:52:28.112Z,99009.69
2023-01-10T11:55:00.442Z,99007.06
2023-01-10T11:57:33.126Z,99013.72
2023-01-10T12:00:09.969Z,99006.16
2023-01-10T12:02:44.694Z,99015.56
2023-01-10T12:05:21.591Z,99006.84
2023-01-10T12:11:02.125Z,99012.50
2023-01-10T12:13:52.421Z,99027.25
2023-01-10T12:16:33.214Z,99025.25
2023-01-10T12:19:05.242Z,99028.03
2023-01-10T12:21:40.166Z,99029.88
2023-01-10T12:24:34.539Z,99035.06
2023-01-10T12:27:04.139Z,99034.78
2023-01-10T12:29:37.449Z,99009.31
2023-01-10T12:32:17.788Z,99020.44
2023-01-10T12:34:52.543Z,99031.06
2023-01-10T12:37:36.132Z,99026.47
2023-01-10T12:40:17.516Z,99028.31
2023-01-10T12:43:17.251Z,99052.59
2023-01-10T12:46:09.723Z,99049.97
2023-01-10T12:48:50.177Z,99048.75
2023-01-10T12:51:23.113Z,99057.25
2023-01-10T12:54:04.347Z,99058.47
2023-01-10T12:56:32.429Z,99060.16
2023-01-10T12:59:12.564Z,99086.16
2023-01-10T13:01:43.358Z,99093.06
2023-01-10T13:04:21.151Z,99077.97
2023-01-10T13:06:50.458Z,99086.06
2023-01-10T13:09:28.124Z,99093.06
2023-01-10T13:12:31.916Z,99110.94
2023-01-10T13:15:28.188Z,99101.63
2023-01-10T13:18:16.708Z,99117.00
2023-01-10T13:20:46.199Z,99124.38
2023-01-10T13:23:33.456Z,99119.63
2023-01-10T13:26:12.338Z,99118.53
2023-01-10T13:28:55.848Z,99132.63
2023-01-10T13:31:34.212Z,99124.31
2023-01-10T13:34:12.804Z,99116.84
2023-01-10T13:36:51.493Z,99126.34
2023-01-10T13:39:40.309Z,99129.69
2023-01-10T13:42:27.519Z,99140.47
2023-01-10T13:45:01.637Z,99141.28
2023-01-10T13:47:43.520Z,99145.28
2023-01-10T13:50:25.474Z,99153.03
2023-01-10T13:53:18.187Z,99162.47
2023-01-10T13:55:54.940Z,99147.63
2023-01-10T13:58:42.887Z,99147.75
2023-01-10T14:01:49.090Z,99140.25
2023-01-10T14:04:24.199Z,99148.91
2023-01-10T14:07:04.260Z,99164.91
2023-01-10T14:09:38.127Z,99161.41
2023-01-10T14:12:23.898Z,99161.97
2023-01-10T14:15:02.226Z,99172.19
2023-01-10T14:17:33.459Z,99173.00
2023-01-10T14:20:12.019Z,99181.41
2023-01-10T14:22:48.250Z,99191.16
2023-01-10T14:28:33.555Z,99193.19
2023-01-10T14:31:04.661Z,99203.22
2023-01-10T14:33:36.331Z,99213.22
2023-01-10T14:36:10.131Z,99226.16
2023-01-10T14:38:41.203Z,99218.63
2023-01-10T14:41:12.935Z,99217.00
2023-01-10T14:43:55.232Z,99231.38
2023-01-10T14:46:34.663Z,99211.19
2023-01-10T14:49:24.239Z,99220.59
2023-01-10T14:52:00.860Z,99213.50
2023-01-10T14:54:31.179Z,99214.91
2023-01-10T14:56:58.996Z,99234.19
2023-01-10T14:59:27.716Z,99236.03
2023-01-10T15:02:03.351Z,99233.66
2023-01-10T15:04:36.278Z,99247.97
2023-01-10T15:07:17.150Z,99253.25
2023-01-10T15:09:51.112Z,99268.63
2023-01-10T15:12:29.319Z,99248.78
2023-01-10T15:15:22.141Z,99245.66
2023-01-10T15:17:53.238Z,99246.81
2023-01-10T15:20:23.283Z,99250.31
2023-01-10T15:23:02.407Z,99264.91
2023-01-10T15:25:32.374Z,99270.00
2023-01-10T15:28:02.955Z,99266.91
2023-01-10T15:30:37.015Z,99267.69
2023-01-10T15:33:14.226Z,99261.09
2023-01-10T15:35:45.793Z,99265.81
2023-01-10T15:38:18.183Z,99275.63
2023-01-10T15:40:58.897Z,99267.44
2023-01-10T15:43:32.290Z,99271.75
2023-01-10T15:46:05.958Z,99284.66
2023-01-10T15:48:37.213Z,99275.88
2023-01-10T15:51:14.073Z,99283.13
2023-01-10T15:53:56.164Z,99289.66
2023-01-10T15:56:50.002Z,99293.19
2023-01-10T15:59:29.281Z,99283.47
2023-01-10T16:02:16.086Z,99290.50
2023-01-10T16:04:46.209Z,99273.47
2023-01-10T16:07:31.014Z,99286.84
2023-01-10T16:10:06.220Z,99289.34
2023-01-10T16:12:56.413Z,99284.03
2023-01-10T16:15:33.203Z,99286.78
2023-01-10T16:18:02.628Z,99283.38
2023-01-10T16:20:43.275Z,99291.72
2023-01-10T16:23:19.426Z,99283.41
2023-01-10T16:25:51.811Z,99281.72
2023-01-10T16:28:21.417Z,99280.84
2023-01-10T16:30:53.301Z,99281.69
2023-01-10T16:33:24.410Z,99290.03
2023-01-10T16:35:57.475Z,99299.03
2023-01-10T16:38:28.175Z,99298.81
2023-01-10T16:47:07.219Z,99311.75
2023-01-10T16:49:35.894Z,99295.25
2023-01-10T16:54:55.433Z,99309.97
2023-01-10T16:57:24.685Z,99311.03
2023-01-10T16:59:52.589Z,99308.06
2023-01-10T17:02:22.216Z,99317.88
2023-01-10T17:04:50.025Z,99309.41
2023-01-10T17:07:18.011Z,99311.13
2023-01-10T17:09:46.896Z,99311.78
2023-01-10T17:15:38.286Z,99301.38
2023-01-10T17:18:06.170Z,99309.03
2023-01-10T17:20:34.115Z,99313.31
2023-01-10T17:23:02.103Z,99312.44
2023-01-10T17:25:29.924Z,99312.66
2023-01-10T17:27:58.559Z,99314.34
2023-01-10T17:30:26.519Z,99311.34
2023-01-10T17:32:55.860Z,99308.97
2023-01-10T17:35:48.361Z,99315.53
2023-01-10T17:38:17.377Z,99315.38
2023-01-10T17:40:47.384Z,99321.88
2023-01-10T17:43:17.207Z,99309.94
2023-01-10T17:45:48.040Z,99326.59
2023-01-10T17:48:19.322Z,99314.56
2023-01-10T17:50:54.563Z,99313.22
2023-01-10T17:53:23.439Z,99317.63
2023-01-10T17:55:52.426Z,99314.66
2023-01-10T17:58:21.401Z,99311.63
2023-01-10T18:00:51.471Z,99318.41
2023-01-10T18:03:23.326Z,99314.97
2023-01-10T18:05:56.870Z,99335.31
2023-01-10T18:08:25.739Z,99311.25
2023-01-10T18:11:01.367Z,99323.16
2023-01-10T18:13:32.136Z,99323.25
2023-01-10T18:16:02.957Z,99323.41
2023-01-10T18:18:31.359Z,99319.88
2023-01-10T18:21:02.067Z,99321.03
2023-01-10T18:23:32.180Z,99323.91
2023-01-10T18:26:09.386Z,99327.50
2023-01-10T18:28:45.174Z,99332.72
2023-01-10T18:31:18.147Z,99324.84
2023-01-10T18:33:49.173Z,99332.50
2023-01-10T18:36:19.833Z,99315.69
2023-01-10T18:41:40.221Z,99334.38
2023-01-10T18:44:08.861Z,99331.31
2023-01-10T18:46:37.221Z,99328.78
2023-01-10T18:49:30.611Z,99339.22
2023-01-10T18:52:02.347Z,99336.81
2023-01-10T18:54:31.757Z,99336.00
2023-01-10T18:57:25.514Z,99333.25
2023-01-10T18:59:53.384Z,99329.13
2023-01-10T19:02:21.374Z,99319.94
2023-01-10T19:04:49.328Z,99323.16
2023-01-10T19:07:17.213Z,99325.31
2023-01-10T19:09:45.205Z,99330.28
2023-01-10T19:12:13.864Z,99330.56
2023-01-10T19:14:43.190Z,99328.66
2023-01-10T19:17:11.095Z,99324.06
2023-01-10T19:19:39.047Z,99327.28
2023-01-10T19:22:06.919Z,99333.28
2023-01-10T19:24:38.206Z,99326.41
2023-01-10T19:27:06.030Z,99321.03
2023-01-10T19:29:35.285Z,99326.78
2023-01-10T19:32:04.182Z,99304.69
2023-01-10T19:34:32.188Z,99322.00
2023-01-10T19:37:01.313Z,99323.31
2023-01-10T19:39:30.181Z,99319.25
2023-01-10T19:41:58.012Z,99327.38
2023-01-10T19:44:53.233Z,99327.94
2023-01-10T19:47:21.241Z,99339.59
2023-01-10T19:49:49.104Z,99339.47
2023-01-10T19:52:20.193Z,99328.53
2023-01-10T19:54:48.494Z,99336.44
2023-01-10T19:57:41.838Z,99324.00
2023-01-10T20:00:10.396Z,99309.34
2023-01-10T20:05:35.511Z,99300.13
2023-01-10T20:08:04.960Z,99303.41
2023-01-10T20:10:32.774Z,99305.84
2023-01-10T20:13:02.200Z,99309.03
2023-01-10T20:15:30.010Z,99305.56
2023-01-10T20:20:51.608Z,99304.47
2023-01-10T20:23:22.466Z,99306.94
2023-01-10T20:26:03.335Z,99308.00
2023-01-10T20:28:31.646Z,99309.97
2023-01-10T20:31:00.871Z,99314.84
2023-01-10T20:33:28.956Z,99318.16
2023-01-10T20:36:00.701Z,99313.75
2023-01-10T20:38:30.211Z,99310.59
2023-01-10T20:41:10.129Z,99310.50
2023-01-10T20:43:40.219Z,99300.47
2023-01-10T20:46:14.662Z,99303.16
2023-01-10T20:48:44.289Z,99301.06
2023-01-10T20:51:17.208Z,99299.16
2023-01-10T20:53:49.365Z,99294.28
2023-01-10T20:56:21.525Z,99302.16
2023-01-10T20:58:50.638Z,99287.84
2023-01-10T21:01:33.216Z,99292.19
2023-01-10T21:04:04.201Z,99275.88
2023-01-10T21:06:34.430Z,99287.09
2023-01-10T21:09:02.912Z,99279.72
2023-01-10T21:11:31.795Z,99283.56
2023-01-10T21:14:02.112Z,99276.28
2023-01-10T21:16:29.976Z,99281.97
2023-01-10T21:19:01.369Z,99289.06
2023-01-10T21:21:29.955Z,99282.81
2023-01-10T21:23:57.782Z,99282.84
2023-01-10T21:26:26.527Z,99276.06
2023-01-10T21:28:55.907Z,99279.34
2023-01-10T21:31:23.777Z,99271.75
2023-01-10T21:33:52.251Z,99272.00
2023-01-10T21:36:20.952Z,99275.53
2023-01-10T21:38:50.175Z,99278.00
2023-01-10T21:41:38.641Z,99266.59
2023-01-10T21:44:08.238Z,99267.16
2023-01-10T21:46:37.134Z,99267.97
2023-01-10T21:49:05.417Z,99262.50
2023-01-10T21:51:33.324Z,99257.63
2023-01-10T21:54:01.257Z,99254.09
2023-01-10T21:56:29.113Z,99260.06
2023-01-10T21:58:58.367Z,99269.31
2023-01-10T22:01:26.282Z,99256.81
2023-01-10T22:03:55.362Z,99267.13
2023-01-10T22:06:23.373Z,99247.88
2023-01-10T22:08:52.896Z,99270.09
2023-01-10T22:11:20.994Z,99267.13
2023-01-10T22:13:54.231Z,99264.94
2023-01-10T22:16:23.926Z,99266.00
2023-01-10T22:18:52.429Z,99267.06
2023-01-10T22:21:20.497Z,99255.69
2023-01-10T22:23:48.972Z,99260.56
2023-01-10T22:26:18.311Z,99255.41
2023-01-10T22:29:11.738Z,99255.16
2023-01-10T22:31:42.263Z,99259.78
2023-01-10T22:34:10.958Z,99256.75
2023-01-10T22:36:39.187Z,99261.91
2023-01-10T22:39:08.189Z,99260.00
2023-01-10T22:41:38.223Z,99254.56
2023-01-10T22:44:31.512Z,99261.59
2023-01-10T22:46:59.387Z,99263.50
2023-01-10T22:49:27.285Z,99246.38
2023-01-10T22:51:55.431Z,99247.75
2023-01-10T22:54:23.295Z,99246.91
2023-01-10T22:56:51.907Z,99238.78
2023-01-10T22:59:23.442Z,99244.47
2023-01-10T23:01:51.270Z,99244.16
2023-01-10T23:04:44.573Z,99240.13
2023-01-10T23:07:13.051Z,99238.44
2023-01-10T23:09:41.280Z,99244.97
2023-01-10T23:12:09.972Z,99247.66
2023-01-10T23:14:37.966Z,99257.31
2023-01-10T23:17:07.285Z,99248.09
2023-01-10T23:19:35.108Z,99245.94
2023-01-10T23:22:04.223Z,99244.00
2023-01-10T23:24:32.127Z,99234.84
2023-01-10T23:27:02.043Z,99234.53
2023-01-10T23:29:29.916Z,99240.50
2023-01-10T23:32:02.298Z,99237.84
2023-01-10T23:34:31.907Z,99252.94
2023-01-10T23:37:03.469Z,99241.59
2023-01-10T23:39:31.373Z,99236.19
2023-01-10T23:41:59.961Z,99237.25
2023-01-10T23:44:31.583Z,99231.28
2023-01-10T23:46:59.898Z,99227.19
2023-01-10T23:49:27.711Z,99225.88
2023-01-10T23:51:55.541Z,99228.25
2023-01-10T23:54:23.885Z,99219.63
